Terminal Aerodrome Forecast
Issued by NWS

Home | Current Version | Previous Version | Text Only | Print | Product List | Glossary On
Versions: 1 2 3 4 5 6 7 8 9 10 11 12 13 14 15 16 17 18 19 20 21 22 23 24 25 26 27 28 29 30 31 32 33 34 35 36 37 38 39 40 41 42 43 44 45 46 47
000
FTUS44 KLZK 240537
TAFBPK
TAF
KBPK 240537Z 2406/2506 25008KT P6SM -RA OVC100
     FM240900 25006KT 6SM BR VCSH OVC030
     FM241600 26008KT P6SM BKN050
     FM250200 23003KT P6SM FEW250=

USA.gov is the U.S. government's official web portal to all federal, state and local government web resources and services.